sensor_id;sensor_type;location;lat;lon;timestamp;temperature;humidity
41944;DHT22;27636;52.610;13.244;2023-03-01T00:01:22;-4.50;99.90
41944;DHT22;27636;52.610;13.244;2023-03-01T00:06:27;-4.40;99.90
41944;DHT22;27636;52.610;13.244;2023-03-01T00:11:33;-4.40;99.90
41944;DHT22;27636;52.610;13.244;2023-03-01T00:16:39;-4.50;99.90
41944;DHT22;27636;52.610;13.244;2023-03-01T00:21:45;-4.50;99.90
41944;DHT22;27636;52.610;13.244;2023-03-01T00:26:52;-4.40;99.90
41944;DHT22;27636;52.610;13.244;2023-03-01T00:31:56;-4.50;99.90
41944;DHT22;27636;52.610;13.244;2023-03-01T00:36:59;-4.50;99.90
41944;DHT22;27636;52.610;13.244;2023-03-01T00:42:09;-4.50;99.90
41944;DHT22;27636;52.610;13.244;2023-03-01T00:47:13;-4.50;99.90
41944;DHT22;27636;52.610;13.244;2023-03-01T00:52:17;-4.50;99.90
41944;DHT22;27636;52.610;13.244;2023-03-01T00:57:22;-4.50;99.90
41944;DHT22;27636;52.610;13.244;2023-03-01T01:02:26;-4.60;99.90
41944;DHT22;27636;52.610;13.244;2023-03-01T01:07:29;-4.70;99.90
41944;DHT22;27636;52.610;13.244;2023-03-01T01:12:35;-4.70;99.90
41944;DHT22;27636;52.610;13.244;2023-03-01T01:17:39;-4.70;99.90
41944;DHT22;27636;52.610;13.244;2023-03-01T01:22:43;-4.70;99.90
41944;DHT22;27636;52.610;13.244;2023-03-01T01:27:48;-4.80;99.90
41944;DHT22;27636;52.610;13.244;2023-03-01T01:32:53;-5.00;99.90
41944;DHT22;27636;52.610;13.244;2023-03-01T01:37:56;-4.90;99.90
41944;DHT22;27636;52.610;13.244;2023-03-01T01:43:02;-4.90;99.90
41944;DHT22;27636;52.610;13.244;2023-03-01T01:48:07;-4.80;99.90
41944;DHT22;27636;52.610;13.244;2023-03-01T01:53:16;-4.90;99.90
41944;DHT22;27636;52.610;13.244;2023-03-01T01:58:24;-5.10;99.90
41944;DHT22;27636;52.610;13.244;2023-03-01T02:03:31;-4.90;99.90
41944;DHT22;27636;52.610;13.244;2023-03-01T02:08:39;-5.00;99.90
41944;DHT22;27636;52.610;13.244;2023-03-01T02:13:47;-5.10;99.90
41944;DHT22;27636;52.610;13.244;2023-03-01T02:18:53;-5.20;99.90
41944;DHT22;27636;52.610;13.244;2023-03-01T02:24:07;-5.20;99.90
41944;DHT22;27636;52.610;13.244;2023-03-01T02:29:15;-5.10;99.90
41944;DHT22;27636;52.610;13.244;2023-03-01T02:34:22;-5.00;99.90
41944;DHT22;27636;52.610;13.244;2023-03-01T02:39:32;-5.20;99.90
41944;DHT22;27636;52.610;13.244;2023-03-01T02:44:39;-5.30;99.90
41944;DHT22;27636;52.610;13.244;2023-03-01T02:49:43;-5.20;99.90
41944;DHT22;27636;52.610;13.244;2023-03-01T02:54:49;-5.00;99.90
41944;DHT22;27636;52.610;13.244;2023-03-01T02:59:58;-5.10;99.90
41944;DHT22;27636;52.610;13.244;2023-03-01T03:05:09;-5.30;99.90
41944;DHT22;27636;52.610;13.244;2023-03-01T03:10:21;-5.20;99.90
41944;DHT22;27636;52.610;13.244;2023-03-01T03:15:27;-5.20;99.90
41944;DHT22;27636;52.610;13.244;2023-03-01T03:20:33;-5.20;99.90
41944;DHT22;27636;52.610;13.244;2023-03-01T03:25:36;-5.20;99.90
41944;DHT22;27636;52.610;13.244;2023-03-01T03:30:44;-5.30;99.90
41944;DHT22;27636;52.610;13.244;2023-03-01T03:35:49;-5.30;99.90
41944;DHT22;27636;52.610;13.244;2023-03-01T03:41:00;-5.20;99.90
41944;DHT22;27636;52.610;13.244;2023-03-01T03:46:08;-5.20;99.90
41944;DHT22;27636;52.610;13.244;2023-03-01T03:51:14;-5.20;99.90
41944;DHT22;27636;52.610;13.244;2023-03-01T03:56:17;-5.40;99.90
41944;DHT22;27636;52.610;13.244;2023-03-01T04:01:23;-5.30;99.90
41944;DHT22;27636;52.610;13.244;2023-03-01T04:06:28;-5.50;99.90
41944;DHT22;27636;52.610;13.244;2023-03-01T04:11:33;-5.50;99.90
41944;DHT22;27636;52.610;13.244;2023-03-01T04:16:40;-5.60;99.90
41944;DHT22;27636;52.610;13.244;2023-03-01T04:21:44;-5.50;99.90
41944;DHT22;27636;52.610;13.244;2023-03-01T04:26:48;-5.40;99.90
41944;DHT22;27636;52.610;13.244;2023-03-01T04:31:53;-5.40;99.90
41944;DHT22;27636;52.610;13.244;2023-03-01T04:36:57;-5.40;99.90
41944;DHT22;27636;52.610;13.244;2023-03-01T04:42:02;-5.30;99.90
41944;DHT22;27636;52.610;13.244;2023-03-01T04:47:07;-5.40;99.90
41944;DHT22;27636;52.610;13.244;2023-03-01T04:52:11;-5.50;99.90
41944;DHT22;27636;52.610;13.244;2023-03-01T04:57:15;-5.60;99.90
41944;DHT22;27636;52.610;13.244;2023-03-01T05:02:21;-5.60;99.90
41944;DHT22;27636;52.610;13.244;2023-03-01T05:07:24;-5.50;99.90
41944;DHT22;27636;52.610;13.244;2023-03-01T05:12:30;-5.70;99.90
41944;DHT22;27636;52.610;13.244;2023-03-01T05:17:36;-5.80;99.90
41944;DHT22;27636;52.610;13.244;2023-03-01T05:22:40;-5.70;99.90
41944;DHT22;27636;52.610;13.244;2023-03-01T05:27:43;-5.70;99.90
41944;DHT22;27636;52.610;13.244;2023-03-01T05:32:50;-5.60;99.90
41944;DHT22;27636;52.610;13.244;2023-03-01T05:37:59;-5.60;99.90
41944;DHT22;27636;52.610;13.244;2023-03-01T05:43:03;-5.60;99.90
41944;DHT22;27636;52.610;13.244;2023-03-01T05:48:10;-5.70;99.90
41944;DHT22;27636;52.610;13.244;2023-03-01T05:53:18;-5.70;99.90
41944;DHT22;27636;52.610;13.244;2023-03-01T05:58:23;-5.60;99.90
41944;DHT22;27636;52.610;13.244;2023-03-01T06:03:28;-5.70;99.90
41944;DHT22;27636;52.610;13.244;2023-03-01T06:08:32;-5.60;99.90
41944;DHT22;27636;52.610;13.244;2023-03-01T06:13:36;-5.60;99.90
41944;DHT22;27636;52.610;13.244;2023-03-01T06:18:41;-5.50;99.90
41944;DHT22;27636;52.610;13.244;2023-03-01T06:23:44;-5.30;99.90
41944;DHT22;27636;52.610;13.244;2023-03-01T06:28:47;-5.00;99.90
41944;DHT22;27636;52.610;13.244;2023-03-01T06:33:52;-4.70;99.90
41944;DHT22;27636;52.610;13.244;2023-03-01T06:38:56;-4.50;99.90
41944;DHT22;27636;52.610;13.244;2023-03-01T06:44:00;-4.40;99.90
41944;DHT22;27636;52.610;13.244;2023-03-01T06:49:04;-4.30;99.90
41944;DHT22;27636;52.610;13.244;2023-03-01T06:54:12;-4.30;99.90
41944;DHT22;27636;52.610;13.244;2023-03-01T06:59:16;-4.10;99.90
41944;DHT22;27636;52.610;13.244;2023-03-01T07:04:21;-4.00;99.90
41944;DHT22;27636;52.610;13.244;2023-03-01T07:09:25;-3.80;99.90
41944;DHT22;27636;52.610;13.244;2023-03-01T07:14:28;-3.60;99.90
41944;DHT22;27636;52.610;13.244;2023-03-01T07:19:33;-3.50;99.90
41944;DHT22;27636;52.610;13.244;2023-03-01T07:24:37;-3.30;99.90
41944;DHT22;27636;52.610;13.244;2023-03-01T07:29:41;-3.10;99.90
41944;DHT22;27636;52.610;13.244;2023-03-01T07:34:47;-2.70;99.90
41944;DHT22;27636;52.610;13.244;2023-03-01T07:39:51;-1.80;99.90
41944;DHT22;27636;52.610;13.244;2023-03-01T07:44:54;0.60;99.90
41944;DHT22;27636;52.610;13.244;2023-03-01T07:49:59;2.20;99.90
41944;DHT22;27636;52.610;13.244;2023-03-01T07:55:05;3.70;99.90
41944;DHT22;27636;52.610;13.244;2023-03-01T08:00:11;5.00;99.90
41944;DHT22;27636;52.610;13.244;2023-03-01T08:05:17;6.40;99.90
41944;DHT22;27636;52.610;13.244;2023-03-01T08:10:21;6.70;94.70
41944;DHT22;27636;52.610;13.244;2023-03-01T08:15:24;8.10;99.00
41944;DHT22;27636;52.610;13.244;2023-03-01T08:20:29;8.10;91.80
41944;DHT22;27636;52.610;13.244;2023-03-01T08:25:33;9.00;91.20
41944;DHT22;27636;52.610;13.244;2023-03-01T08:30:36;10.30;91.70
41944;DHT22;27636;52.610;13.244;2023-03-01T08:35:41;10.80;77.10
41944;DHT22;27636;52.610;13.244;2023-03-01T08:40:44;9.90;85.60
41944;DHT22;27636;52.610;13.244;2023-03-01T08:45:48;10.70;77.10
41944;DHT22;27636;52.610;13.244;2023-03-01T08:50:53;11.20;72.80
41944;DHT22;27636;52.610;13.244;2023-03-01T08:55:59;11.40;75.10
41944;DHT22;27636;52.610;13.244;2023-03-01T09:01:07;11.90;69.40
41944;DHT22;27636;52.610;13.244;2023-03-01T09:06:13;11.80;68.80
41944;DHT22;27636;52.610;13.244;2023-03-01T09:11:19;12.80;62.50
41944;DHT22;27636;52.610;13.244;2023-03-01T09:16:23;12.30;61.30
41944;DHT22;27636;52.610;13.244;2023-03-01T09:21:28;12.20;64.60
41944;DHT22;27636;52.610;13.244;2023-03-01T09:26:43;12.90;59.70
41944;DHT22;27636;52.610;13.244;2023-03-01T09:31:51;12.50;63.00
41944;DHT22;27636;52.610;13.244;2023-03-01T09:37:00;12.50;57.80
41944;DHT22;27636;52.610;13.244;2023-03-01T09:42:11;12.90;57.90
41944;DHT22;27636;52.610;13.244;2023-03-01T09:47:18;12.90;59.50
41944;DHT22;27636;52.610;13.244;2023-03-01T09:52:30;13.00;57.30
41944;DHT22;27636;52.610;13.244;2023-03-01T09:57:41;12.70;57.70
41944;DHT22;27636;52.610;13.244;2023-03-01T10:02:49;11.60;59.50
41944;DHT22;27636;52.610;13.244;2023-03-01T10:08:06;10.40;60.00
41944;DHT22;27636;52.610;13.244;2023-03-01T10:13:21;8.50;69.20
41944;DHT22;27636;52.610;13.244;2023-03-01T10:18:28;7.80;72.50
41944;DHT22;27636;52.610;13.244;2023-03-01T10:23:35;7.60;71.00
41944;DHT22;27636;52.610;13.244;2023-03-01T10:28:47;7.30;72.70
41944;DHT22;27636;52.610;13.244;2023-03-01T10:33:53;7.00;74.20
41944;DHT22;27636;52.610;13.244;2023-03-01T10:39:04;6.60;74.70
41944;DHT22;27636;52.610;13.244;2023-03-01T10:44:38;6.40;75.00
41944;DHT22;27636;52.610;13.244;2023-03-01T10:49:57;6.60;69.70
41944;DHT22;27636;52.610;13.244;2023-03-01T10:55:19;6.50;71.50
41944;DHT22;27636;52.610;13.244;2023-03-01T11:00:27;6.40;70.60
41944;DHT22;27636;52.610;13.244;2023-03-01T11:05:31;6.30;71.90
41944;DHT22;27636;52.610;13.244;2023-03-01T11:10:38;6.60;72.90
41944;DHT22;27636;52.610;13.244;2023-03-01T11:15:43;6.70;67.80
41944;DHT22;27636;52.610;13.244;2023-03-01T11:20:46;7.10;71.20
41944;DHT22;27636;52.610;13.244;2023-03-01T11:25:55;7.80;66.30
41944;DHT22;27636;52.610;13.244;2023-03-01T11:31:03;7.60;64.20
41944;DHT22;27636;52.610;13.244;2023-03-01T11:36:16;7.70;63.20
41944;DHT22;27636;52.610;13.244;2023-03-01T11:41:27;8.30;60.70
41944;DHT22;27636;52.610;13.244;2023-03-01T11:46:51;8.10;65.10
41944;DHT22;27636;52.610;13.244;2023-03-01T11:52:02;7.70;66.60
41944;DHT22;27636;52.610;13.244;2023-03-01T11:57:16;7.60;66.00
41944;DHT22;27636;52.610;13.244;2023-03-01T12:07:46;7.60;59.50
41944;DHT22;27636;52.610;13.244;2023-03-01T12:13:05;7.70;60.10
41944;DHT22;27636;52.610;13.244;2023-03-01T12:18:33;8.10;54.90
41944;DHT22;27636;52.610;13.244;2023-03-01T12:24:02;10.40;52.20
41944;DHT22;27636;52.610;13.244;2023-03-01T12:29:20;12.00;50.70
41944;DHT22;27636;52.610;13.244;2023-03-01T12:34:38;13.00;49.40
41944;DHT22;27636;52.610;13.244;2023-03-01T12:39:52;13.40;44.50
41944;DHT22;27636;52.610;13.244;2023-03-01T12:45:18;12.60;44.50
41944;DHT22;27636;52.610;13.244;2023-03-01T12:50:33;13.30;43.40
41944;DHT22;27636;52.610;13.244;2023-03-01T12:55:42;12.00;45.20
41944;DHT22;27636;52.610;13.244;2023-03-01T13:00:59;11.10;47.60
41944;DHT22;27636;52.610;13.244;2023-03-01T13:06:08;11.80;44.40
41944;DHT22;27636;52.610;13.244;2023-03-01T13:11:17;11.60;46.00
41944;DHT22;27636;52.610;13.244;2023-03-01T13:16:39;12.60;46.60
41944;DHT22;27636;52.610;13.244;2023-03-01T13:21:45;12.20;48.30
41944;DHT22;27636;52.610;13.244;2023-03-01T13:27:23;11.80;49.90
41944;DHT22;27636;52.610;13.244;2023-03-01T13:32:30;12.70;49.20
41944;DHT22;27636;52.610;13.244;2023-03-01T13:37:49;13.30;50.50
41944;DHT22;27636;52.610;13.244;2023-03-01T13:42:54;12.70;49.40
41944;DHT22;27636;52.610;13.244;2023-03-01T13:48:11;12.10;53.50
41944;DHT22;27636;52.610;13.244;2023-03-01T13:53:20;12.70;52.10
41944;DHT22;27636;52.610;13.244;2023-03-01T13:58:27;12.40;52.70
41944;DHT22;27636;52.610;13.244;2023-03-01T14:03:39;12.00;52.40
41944;DHT22;27636;52.610;13.244;2023-03-01T14:08:45;11.40;53.80
41944;DHT22;27636;52.610;13.244;2023-03-01T14:13:58;11.00;54.40
41944;DHT22;27636;52.610;13.244;2023-03-01T14:19:15;10.90;54.40
41944;DHT22;27636;52.610;13.244;2023-03-01T14:24:39;9.90;56.60
41944;DHT22;27636;52.610;13.244;2023-03-01T14:29:53;9.20;58.10
41944;DHT22;27636;52.610;13.244;2023-03-01T14:34:59;8.80;60.40
41944;DHT22;27636;52.610;13.244;2023-03-01T14:40:05;8.40;61.10
41944;DHT22;27636;52.610;13.244;2023-03-01T14:45:24;8.10;64.00
41944;DHT22;27636;52.610;13.244;2023-03-01T14:50:31;8.00;62.50
41944;DHT22;27636;52.610;13.244;2023-03-01T14:55:37;7.80;62.70
41944;DHT22;27636;52.610;13.244;2023-03-01T15:00:47;7.80;64.80
41944;DHT22;27636;52.610;13.244;2023-03-01T15:05:53;7.80;65.70
41944;DHT22;27636;52.610;13.244;2023-03-01T15:10:59;7.60;64.70
41944;DHT22;27636;52.610;13.244;2023-03-01T15:16:07;7.70;66.90
41944;DHT22;27636;52.610;13.244;2023-03-01T15:21:18;7.80;67.20
41944;DHT22;27636;52.610;13.244;2023-03-01T15:26:29;7.90;67.20
41944;DHT22;27636;52.610;13.244;2023-03-01T15:31:36;7.90;67.60
41944;DHT22;27636;52.610;13.244;2023-03-01T15:36:45;7.50;70.10
41944;DHT22;27636;52.610;13.244;2023-03-01T15:41:52;7.60;71.20
41944;DHT22;27636;52.610;13.244;2023-03-01T15:46:57;7.60;71.80
41944;DHT22;27636;52.610;13.244;2023-03-01T15:52:03;7.20;74.00
41944;DHT22;27636;52.610;13.244;2023-03-01T15:57:12;7.10;74.90
41944;DHT22;27636;52.610;13.244;2023-03-01T16:02:17;7.00;75.10
41944;DHT22;27636;52.610;13.244;2023-03-01T16:07:25;6.50;78.50
41944;DHT22;27636;52.610;13.244;2023-03-01T16:12:31;6.30;78.10
41944;DHT22;27636;52.610;13.244;2023-03-01T16:17:34;5.80;80.50
41944;DHT22;27636;52.610;13.244;2023-03-01T16:22:39;5.50;82.30
41944;DHT22;27636;52.610;13.244;2023-03-01T16:27:44;5.00;84.80
41944;DHT22;27636;52.610;13.244;2023-03-01T16:32:49;4.70;87.00
41944;DHT22;27636;52.610;13.244;2023-03-01T16:37:54;4.40;89.70
41944;DHT22;27636;52.610;13.244;2023-03-01T16:42:58;4.00;91.00
41944;DHT22;27636;52.610;13.244;2023-03-01T16:48:04;3.80;92.10
41944;DHT22;27636;52.610;13.244;2023-03-01T16:53:10;3.40;93.50
41944;DHT22;27636;52.610;13.244;2023-03-01T16:58:14;3.10;94.80
41944;DHT22;27636;52.610;13.244;2023-03-01T17:03:20;2.80;97.20
41944;DHT22;27636;52.610;13.244;2023-03-01T17:08:25;2.60;99.70
41944;DHT22;27636;52.610;13.244;2023-03-01T17:13:29;2.30;99.90
41944;DHT22;27636;52.610;13.244;2023-03-01T17:18:33;2.10;99.90
41944;DHT22;27636;52.610;13.244;2023-03-01T17:23:40;1.90;99.90
41944;DHT22;27636;52.610;13.244;2023-03-01T17:28:44;1.70;99.90
41944;DHT22;27636;52.610;13.244;2023-03-01T17:33:54;1.60;99.90
41944;DHT22;27636;52.610;13.244;2023-03-01T17:39:02;1.30;99.90
41944;DHT22;27636;52.610;13.244;2023-03-01T17:44:06;1.20;99.90
41944;DHT22;27636;52.610;13.244;2023-03-01T17:49:10;1.00;99.90
41944;DHT22;27636;52.610;13.244;2023-03-01T17:54:15;0.80;99.90
41944;DHT22;27636;52.610;13.244;2023-03-01T17:59:19;0.60;99.90
41944;DHT22;27636;52.610;13.244;2023-03-01T18:04:23;0.40;99.90
41944;DHT22;27636;52.610;13.244;2023-03-01T18:09:28;0.30;99.90
41944;DHT22;27636;52.610;13.244;2023-03-01T18:14:32;0.20;99.90
41944;DHT22;27636;52.610;13.244;2023-03-01T18:19:37;0.00;99.90
41944;DHT22;27636;52.610;13.244;2023-03-01T18:24:45;-0.20;99.90
41944;DHT22;27636;52.610;13.244;2023-03-01T18:29:49;-0.20;99.90
41944;DHT22;27636;52.610;13.244;2023-03-01T18:34:52;-0.40;99.90
41944;DHT22;27636;52.610;13.244;2023-03-01T18:39:57;-0.50;99.90
41944;DHT22;27636;52.610;13.244;2023-03-01T18:45:01;-0.50;99.90
41944;DHT22;27636;52.610;13.244;2023-03-01T18:50:06;-0.60;99.90
41944;DHT22;27636;52.610;13.244;2023-03-01T18:55:11;-0.70;99.90
41944;DHT22;27636;52.610;13.244;2023-03-01T19:00:15;-0.80;99.90
41944;DHT22;27636;52.610;13.244;2023-03-01T19:05:22;-0.80;99.90
41944;DHT22;27636;52.610;13.244;2023-03-01T19:10:27;-0.90;99.90
41944;DHT22;27636;52.610;13.244;2023-03-01T19:15:30;-0.80;99.90
41944;DHT22;27636;52.610;13.244;2023-03-01T19:20:34;-1.00;99.90
41944;DHT22;27636;52.610;13.244;2023-03-01T19:25:40;-1.20;99.90
41944;DHT22;27636;52.610;13.244;2023-03-01T19:30:44;-1.30;99.90
41944;DHT22;27636;52.610;13.244;2023-03-01T19:35:48;-1.30;99.90
41944;DHT22;27636;52.610;13.244;2023-03-01T19:40:53;-1.50;99.90
41944;DHT22;27636;52.610;13.244;2023-03-01T19:45:57;-1.60;99.90
41944;DHT22;27636;52.610;13.244;2023-03-01T19:51:01;-1.60;99.90
41944;DHT22;27636;52.610;13.244;2023-03-01T19:56:07;-1.70;99.90
41944;DHT22;27636;52.610;13.244;2023-03-01T20:01:15;-1.70;99.90
41944;DHT22;27636;52.610;13.244;2023-03-01T20:06:20;-1.80;99.90
41944;DHT22;27636;52.610;13.244;2023-03-01T20:11:26;-1.80;99.90
41944;DHT22;27636;52.610;13.244;2023-03-01T20:16:30;-1.90;99.90
41944;DHT22;27636;52.610;13.244;2023-03-01T20:21:34;-1.80;99.90
41944;DHT22;27636;52.610;13.244;2023-03-01T20:26:39;-1.80;99.90
41944;DHT22;27636;52.610;13.244;2023-03-01T20:31:44;-1.90;99.90
41944;DHT22;27636;52.610;13.244;2023-03-01T20:36:48;-2.00;99.90
41944;DHT22;27636;52.610;13.244;2023-03-01T20:41:54;-2.00;99.90
41944;DHT22;27636;52.610;13.244;2023-03-01T20:46:59;-2.10;99.90
41944;DHT22;27636;52.610;13.244;2023-03-01T20:52:04;-2.10;99.90
41944;DHT22;27636;52.610;13.244;2023-03-01T20:57:10;-2.20;99.90
41944;DHT22;27636;52.610;13.244;2023-03-01T21:02:15;-2.00;99.90
41944;DHT22;27636;52.610;13.244;2023-03-01T21:07:20;-2.20;99.90
41944;DHT22;27636;52.610;13.244;2023-03-01T21:12:25;-2.10;99.90
41944;DHT22;27636;52.610;13.244;2023-03-01T21:17:29;-2.20;99.90
41944;DHT22;27636;52.610;13.244;2023-03-01T21:22:33;-2.30;99.90
41944;DHT22;27636;52.610;13.244;2023-03-01T21:27:39;-2.40;99.90
41944;DHT22;27636;52.610;13.244;2023-03-01T21:32:42;-2.50;99.90
41944;DHT22;27636;52.610;13.244;2023-03-01T21:37:47;-2.50;99.90
41944;DHT22;27636;52.610;13.244;2023-03-01T21:42:51;-2.50;99.90
41944;DHT22;27636;52.610;13.244;2023-03-01T21:47:55;-2.60;99.90
41944;DHT22;27636;52.610;13.244;2023-03-01T21:52:59;-2.60;99.90
41944;DHT22;27636;52.610;13.244;2023-03-01T21:58:08;-2.60;99.90
41944;DHT22;27636;52.610;13.244;2023-03-01T22:03:11;-2.70;99.90
41944;DHT22;27636;52.610;13.244;2023-03-01T22:08:15;-2.70;99.90
41944;DHT22;27636;52.610;13.244;2023-03-01T22:13:20;-2.70;99.90
41944;DHT22;27636;52.610;13.244;2023-03-01T22:18:24;-2.70;99.90
41944;DHT22;27636;52.610;13.244;2023-03-01T22:23:27;-2.70;99.90
41944;DHT22;27636;52.610;13.244;2023-03-01T22:28:32;-2.80;99.90
41944;DHT22;27636;52.610;13.244;2023-03-01T22:33:36;-2.80;99.90
41944;DHT22;27636;52.610;13.244;2023-03-01T22:38:39;-2.70;99.90
41944;DHT22;27636;52.610;13.244;2023-03-01T22:43:45;-2.80;99.90
41944;DHT22;27636;52.610;13.244;2023-03-01T22:48:49;-2.90;99.90
41944;DHT22;27636;52.610;13.244;2023-03-01T22:53:52;-2.90;99.90
41944;DHT22;27636;52.610;13.244;2023-03-01T22:58:58;-2.90;99.90
41944;DHT22;27636;52.610;13.244;2023-03-01T23:04:02;-3.00;99.90
41944;DHT22;27636;52.610;13.244;2023-03-01T23:09:05;-2.90;99.90
41944;DHT22;27636;52.610;13.244;2023-03-01T23:14:10;-3.00;99.90
41944;DHT22;27636;52.610;13.244;2023-03-01T23:19:14;-3.00;99.90
41944;DHT22;27636;52.610;13.244;2023-03-01T23:24:20;-2.90;99.90
41944;DHT22;27636;52.610;13.244;2023-03-01T23:29:26;-3.00;99.90
41944;DHT22;27636;52.610;13.244;2023-03-01T23:34:29;-2.90;99.90
41944;DHT22;27636;52.610;13.244;2023-03-01T23:39:32;-3.00;99.90
41944;DHT22;27636;52.610;13.244;2023-03-01T23:44:37;-3.10;99.90
41944;DHT22;27636;52.610;13.244;2023-03-01T23:49:42;-3.10;99.90
41944;DHT22;27636;52.610;13.244;2023-03-01T23:54:46;-3.10;99.90
41944;DHT22;27636;52.610;13.244;2023-03-01T23:59:50;-3.00;99.90
